sensor_id;sensor_type;location;lat;lon;timestamp;P1;durP1;ratioP1;P2;durP2;ratioP2
20731;SDS011;10527;52.124;5.196;2023-07-02T00:00:05;5.70;;;2.25;;
20731;SDS011;10527;52.124;5.196;2023-07-02T00:02:34;7.95;;;3.10;;
20731;SDS011;10527;52.124;5.196;2023-07-02T00:05:03;8.88;;;2.55;;
20731;SDS011;10527;52.124;5.196;2023-07-02T00:07:35;4.32;;;2.72;;
20731;SDS011;10527;52.124;5.196;2023-07-02T00:10:04;4.53;;;2.47;;
20731;SDS011;10527;52.124;5.196;2023-07-02T00:12:32;6.75;;;2.78;;
20731;SDS011;10527;52.124;5.196;2023-07-02T00:15:00;6.25;;;3.40;;
20731;SDS011;10527;52.124;5.196;2023-07-02T00:17:27;7.80;;;3.17;;
20731;SDS011;10527;52.124;5.196;2023-07-02T00:19:54;6.30;;;2.85;;
20731;SDS011;10527;52.124;5.196;2023-07-02T00:22:21;5.72;;;3.13;;
20731;SDS011;10527;52.124;5.196;2023-07-02T00:24:48;7.30;;;3.55;;
20731;SDS011;10527;52.124;5.196;2023-07-02T00:27:17;9.02;;;3.28;;
20731;SDS011;10527;52.124;5.196;2023-07-02T00:29:44;7.57;;;3.58;;
20731;SDS011;10527;52.124;5.196;2023-07-02T00:32:11;8.88;;;3.92;;
20731;SDS011;10527;52.124;5.196;2023-07-02T00:34:38;12.15;;;4.15;;
20731;SDS011;10527;52.124;5.196;2023-07-02T00:37:05;9.73;;;4.38;;
20731;SDS011;10527;52.124;5.196;2023-07-02T00:39:33;8.73;;;3.72;;
20731;SDS011;10527;52.124;5.196;2023-07-02T00:42:00;9.32;;;4.20;;
20731;SDS011;10527;52.124;5.196;2023-07-02T00:44:29;15.52;;;4.90;;
20731;SDS011;10527;52.124;5.196;2023-07-02T00:46:56;9.23;;;3.70;;
20731;SDS011;10527;52.124;5.196;2023-07-02T00:49:24;8.93;;;4.38;;
20731;SDS011;10527;52.124;5.196;2023-07-02T00:51:53;10.40;;;4.57;;
20731;SDS011;10527;52.124;5.196;2023-07-02T00:54:20;10.60;;;4.43;;
20731;SDS011;10527;52.124;5.196;2023-07-02T00:56:47;14.90;;;5.63;;
20731;SDS011;10527;52.124;5.196;2023-07-02T00:59:14;11.35;;;4.03;;
20731;SDS011;10527;52.124;5.196;2023-07-02T01:01:41;12.80;;;4.50;;
20731;SDS011;10527;52.124;5.196;2023-07-02T01:04:08;10.75;;;4.55;;
20731;SDS011;10527;52.124;5.196;2023-07-02T01:06:36;10.13;;;4.45;;
20731;SDS011;10527;52.124;5.196;2023-07-02T01:09:08;11.55;;;4.30;;
20731;SDS011;10527;52.124;5.196;2023-07-02T01:11:38;9.82;;;5.13;;
20731;SDS011;10527;52.124;5.196;2023-07-02T01:14:11;9.32;;;5.32;;
20731;SDS011;10527;52.124;5.196;2023-07-02T01:16:44;9.93;;;4.60;;
20731;SDS011;10527;52.124;5.196;2023-07-02T01:19:19;11.50;;;4.82;;
20731;SDS011;10527;52.124;5.196;2023-07-02T01:22:12;11.32;;;4.78;;
20731;SDS011;10527;52.124;5.196;2023-07-02T01:24:39;16.55;;;5.13;;
20731;SDS011;10527;52.124;5.196;2023-07-02T01:27:07;11.48;;;4.97;;
20731;SDS011;10527;52.124;5.196;2023-07-02T01:29:36;11.48;;;4.70;;
20731;SDS011;10527;52.124;5.196;2023-07-02T01:32:03;8.45;;;4.25;;
20731;SDS011;10527;52.124;5.196;2023-07-02T01:34:31;10.18;;;4.82;;
20731;SDS011;10527;52.124;5.196;2023-07-02T01:36:58;9.40;;;5.07;;
20731;SDS011;10527;52.124;5.196;2023-07-02T01:39:25;10.52;;;4.35;;
20731;SDS011;10527;52.124;5.196;2023-07-02T01:42:06;12.25;;;4.85;;
20731;SDS011;10527;52.124;5.196;2023-07-02T01:44:36;10.48;;;4.35;;
20731;SDS011;10527;52.124;5.196;2023-07-02T01:47:04;12.77;;;4.75;;
20731;SDS011;10527;52.124;5.196;2023-07-02T01:49:32;11.52;;;5.35;;
20731;SDS011;10527;52.124;5.196;2023-07-02T01:51:59;10.65;;;4.82;;
20731;SDS011;10527;52.124;5.196;2023-07-02T01:54:26;10.63;;;4.95;;
20731;SDS011;10527;52.124;5.196;2023-07-02T01:56:54;11.88;;;4.90;;
20731;SDS011;10527;52.124;5.196;2023-07-02T01:59:22;14.00;;;4.88;;
20731;SDS011;10527;52.124;5.196;2023-07-02T02:01:51;14.20;;;5.53;;
20731;SDS011;10527;52.124;5.196;2023-07-02T02:04:18;11.52;;;5.35;;
20731;SDS011;10527;52.124;5.196;2023-07-02T02:06:45;12.07;;;5.03;;
20731;SDS011;10527;52.124;5.196;2023-07-02T02:09:12;9.25;;;5.25;;
20731;SDS011;10527;52.124;5.196;2023-07-02T02:11:41;14.57;;;5.93;;
20731;SDS011;10527;52.124;5.196;2023-07-02T02:14:11;10.40;;;4.47;;
20731;SDS011;10527;52.124;5.196;2023-07-02T02:16:38;10.23;;;4.38;;
20731;SDS011;10527;52.124;5.196;2023-07-02T02:19:05;15.32;;;5.78;;
20731;SDS011;10527;52.124;5.196;2023-07-02T02:21:32;12.90;;;5.22;;
20731;SDS011;10527;52.124;5.196;2023-07-02T02:23:59;12.02;;;4.57;;
20731;SDS011;10527;52.124;5.196;2023-07-02T02:26:26;8.27;;;4.47;;
20731;SDS011;10527;52.124;5.196;2023-07-02T02:28:53;11.00;;;4.47;;
20731;SDS011;10527;52.124;5.196;2023-07-02T02:31:20;11.13;;;5.05;;
20731;SDS011;10527;52.124;5.196;2023-07-02T02:33:47;14.18;;;5.07;;
20731;SDS011;10527;52.124;5.196;2023-07-02T02:36:14;14.73;;;5.80;;
20731;SDS011;10527;52.124;5.196;2023-07-02T02:38:42;12.75;;;5.60;;
20731;SDS011;10527;52.124;5.196;2023-07-02T02:41:08;11.63;;;4.70;;
20731;SDS011;10527;52.124;5.196;2023-07-02T02:43:35;8.95;;;5.13;;
20731;SDS011;10527;52.124;5.196;2023-07-02T02:46:02;15.55;;;5.38;;
20731;SDS011;10527;52.124;5.196;2023-07-02T02:48:29;7.03;;;3.80;;
20731;SDS011;10527;52.124;5.196;2023-07-02T02:50:56;12.27;;;5.25;;
20731;SDS011;10527;52.124;5.196;2023-07-02T02:53:23;12.32;;;4.38;;
20731;SDS011;10527;52.124;5.196;2023-07-02T02:55:49;11.48;;;4.90;;
20731;SDS011;10527;52.124;5.196;2023-07-02T02:58:16;12.25;;;4.85;;
20731;SDS011;10527;52.124;5.196;2023-07-02T03:00:43;11.55;;;5.15;;
20731;SDS011;10527;52.124;5.196;2023-07-02T03:03:12;11.93;;;5.00;;
20731;SDS011;10527;52.124;5.196;2023-07-02T03:05:39;9.88;;;4.90;;
20731;SDS011;10527;52.124;5.196;2023-07-02T03:08:07;10.63;;;4.82;;
20731;SDS011;10527;52.124;5.196;2023-07-02T03:10:33;10.80;;;5.28;;
20731;SDS011;10527;52.124;5.196;2023-07-02T03:13:00;10.93;;;5.97;;
20731;SDS011;10527;52.124;5.196;2023-07-02T03:15:27;12.43;;;4.50;;
20731;SDS011;10527;52.124;5.196;2023-07-02T03:17:54;11.13;;;5.18;;
20731;SDS011;10527;52.124;5.196;2023-07-02T03:20:23;12.38;;;5.13;;
20731;SDS011;10527;52.124;5.196;2023-07-02T03:22:50;13.40;;;5.32;;
20731;SDS011;10527;52.124;5.196;2023-07-02T03:25:17;10.43;;;4.60;;
20731;SDS011;10527;52.124;5.196;2023-07-02T03:27:44;13.43;;;5.25;;
20731;SDS011;10527;52.124;5.196;2023-07-02T03:30:11;11.70;;;5.43;;
20731;SDS011;10527;52.124;5.196;2023-07-02T03:32:38;7.13;;;4.18;;
20731;SDS011;10527;52.124;5.196;2023-07-02T03:35:05;9.50;;;4.72;;
20731;SDS011;10527;52.124;5.196;2023-07-02T03:37:32;12.25;;;4.90;;
20731;SDS011;10527;52.124;5.196;2023-07-02T03:39:59;13.80;;;5.22;;
20731;SDS011;10527;52.124;5.196;2023-07-02T03:42:26;11.85;;;5.68;;
20731;SDS011;10527;52.124;5.196;2023-07-02T03:44:53;14.13;;;5.15;;
20731;SDS011;10527;52.124;5.196;2023-07-02T03:47:19;11.00;;;5.63;;
20731;SDS011;10527;52.124;5.196;2023-07-02T03:49:48;18.85;;;7.63;;
20731;SDS011;10527;52.124;5.196;2023-07-02T03:52:15;13.25;;;5.25;;
20731;SDS011;10527;52.124;5.196;2023-07-02T03:54:41;14.25;;;6.20;;
20731;SDS011;10527;52.124;5.196;2023-07-02T03:57:08;14.18;;;5.25;;
20731;SDS011;10527;52.124;5.196;2023-07-02T03:59:35;14.75;;;5.82;;
20731;SDS011;10527;52.124;5.196;2023-07-02T04:02:02;12.38;;;4.90;;
20731;SDS011;10527;52.124;5.196;2023-07-02T04:04:30;10.63;;;5.35;;
20731;SDS011;10527;52.124;5.196;2023-07-02T04:06:57;15.15;;;6.30;;
20731;SDS011;10527;52.124;5.196;2023-07-02T04:09:23;13.10;;;5.63;;
20731;SDS011;10527;52.124;5.196;2023-07-02T04:11:50;12.50;;;6.68;;
20731;SDS011;10527;52.124;5.196;2023-07-02T04:14:17;13.73;;;5.78;;
20731;SDS011;10527;52.124;5.196;2023-07-02T04:16:46;12.05;;;5.07;;
20731;SDS011;10527;52.124;5.196;2023-07-02T04:19:13;11.35;;;5.18;;
20731;SDS011;10527;52.124;5.196;2023-07-02T04:21:40;15.30;;;6.20;;
20731;SDS011;10527;52.124;5.196;2023-07-02T04:24:07;15.60;;;5.60;;
20731;SDS011;10527;52.124;5.196;2023-07-02T04:26:34;15.00;;;6.90;;
20731;SDS011;10527;52.124;5.196;2023-07-02T04:29:22;15.60;;;6.30;;
20731;SDS011;10527;52.124;5.196;2023-07-02T04:31:49;18.10;;;7.72;;
20731;SDS011;10527;52.124;5.196;2023-07-02T04:34:16;19.85;;;6.03;;
20731;SDS011;10527;52.124;5.196;2023-07-02T04:36:43;15.82;;;5.40;;
20731;SDS011;10527;52.124;5.196;2023-07-02T04:39:10;12.40;;;5.60;;
20731;SDS011;10527;52.124;5.196;2023-07-02T04:41:37;17.90;;;5.95;;
20731;SDS011;10527;52.124;5.196;2023-07-02T04:44:04;13.45;;;5.45;;
20731;SDS011;10527;52.124;5.196;2023-07-02T04:46:31;16.75;;;5.82;;
20731;SDS011;10527;52.124;5.196;2023-07-02T04:48:57;14.77;;;5.68;;
20731;SDS011;10527;52.124;5.196;2023-07-02T04:51:24;14.50;;;5.68;;
20731;SDS011;10527;52.124;5.196;2023-07-02T04:53:51;15.02;;;5.57;;
20731;SDS011;10527;52.124;5.196;2023-07-02T04:56:18;15.55;;;5.65;;
20731;SDS011;10527;52.124;5.196;2023-07-02T04:58:45;14.05;;;5.63;;
20731;SDS011;10527;52.124;5.196;2023-07-02T05:01:12;14.13;;;5.57;;
20731;SDS011;10527;52.124;5.196;2023-07-02T05:03:39;13.27;;;5.53;;
20731;SDS011;10527;52.124;5.196;2023-07-02T05:06:08;14.18;;;5.60;;
20731;SDS011;10527;52.124;5.196;2023-07-02T05:08:37;13.75;;;5.88;;
20731;SDS011;10527;52.124;5.196;2023-07-02T05:11:06;13.27;;;5.70;;
20731;SDS011;10527;52.124;5.196;2023-07-02T05:13:34;18.63;;;5.80;;
20731;SDS011;10527;52.124;5.196;2023-07-02T05:16:00;14.95;;;5.85;;
20731;SDS011;10527;52.124;5.196;2023-07-02T05:18:27;14.32;;;5.63;;
20731;SDS011;10527;52.124;5.196;2023-07-02T05:20:54;15.50;;;5.53;;
20731;SDS011;10527;52.124;5.196;2023-07-02T05:23:24;14.65;;;5.55;;
20731;SDS011;10527;52.124;5.196;2023-07-02T05:25:51;17.15;;;5.95;;
20731;SDS011;10527;52.124;5.196;2023-07-02T05:28:18;15.98;;;5.85;;
20731;SDS011;10527;52.124;5.196;2023-07-02T05:30:44;12.18;;;5.05;;
20731;SDS011;10527;52.124;5.196;2023-07-02T05:33:12;15.35;;;5.90;;
20731;SDS011;10527;52.124;5.196;2023-07-02T05:35:40;10.38;;;4.95;;
20731;SDS011;10527;52.124;5.196;2023-07-02T05:38:07;15.70;;;5.97;;
20731;SDS011;10527;52.124;5.196;2023-07-02T05:40:34;14.02;;;5.55;;
20731;SDS011;10527;52.124;5.196;2023-07-02T05:43:01;11.95;;;4.63;;
20731;SDS011;10527;52.124;5.196;2023-07-02T05:45:27;13.43;;;5.05;;
20731;SDS011;10527;52.124;5.196;2023-07-02T05:47:55;19.27;;;5.75;;
20731;SDS011;10527;52.124;5.196;2023-07-02T05:50:22;10.77;;;4.32;;
20731;SDS011;10527;52.124;5.196;2023-07-02T05:52:49;12.50;;;5.07;;
20731;SDS011;10527;52.124;5.196;2023-07-02T05:55:16;15.35;;;4.95;;
20731;SDS011;10527;52.124;5.196;2023-07-02T05:57:43;11.55;;;4.55;;
20731;SDS011;10527;52.124;5.196;2023-07-02T06:00:10;12.73;;;4.55;;
20731;SDS011;10527;52.124;5.196;2023-07-02T06:02:38;13.55;;;5.45;;
20731;SDS011;10527;52.124;5.196;2023-07-02T06:05:05;12.30;;;4.43;;
20731;SDS011;10527;52.124;5.196;2023-07-02T06:07:33;12.20;;;4.22;;
20731;SDS011;10527;52.124;5.196;2023-07-02T06:10:00;14.23;;;4.65;;
20731;SDS011;10527;52.124;5.196;2023-07-02T06:12:27;12.55;;;5.30;;
20731;SDS011;10527;52.124;5.196;2023-07-02T06:14:56;12.88;;;4.15;;
20731;SDS011;10527;52.124;5.196;2023-07-02T06:17:23;9.15;;;4.32;;
20731;SDS011;10527;52.124;5.196;2023-07-02T06:22:37;13.88;;;5.20;;
20731;SDS011;10527;52.124;5.196;2023-07-02T06:25:04;17.90;;;4.63;;
20731;SDS011;10527;52.124;5.196;2023-07-02T06:27:31;12.52;;;5.03;;
20731;SDS011;10527;52.124;5.196;2023-07-02T06:29:59;14.93;;;5.20;;
20731;SDS011;10527;52.124;5.196;2023-07-02T06:32:27;8.93;;;4.47;;
20731;SDS011;10527;52.124;5.196;2023-07-02T06:34:53;14.05;;;5.25;;
20731;SDS011;10527;52.124;5.196;2023-07-02T06:37:20;14.63;;;5.15;;
20731;SDS011;10527;52.124;5.196;2023-07-02T06:39:47;12.82;;;4.78;;
20731;SDS011;10527;52.124;5.196;2023-07-02T06:42:23;10.88;;;4.18;;
20731;SDS011;10527;52.124;5.196;2023-07-02T06:44:51;10.15;;;4.18;;
20731;SDS011;10527;52.124;5.196;2023-07-02T06:47:18;13.13;;;4.47;;
20731;SDS011;10527;52.124;5.196;2023-07-02T06:49:46;8.98;;;4.55;;
20731;SDS011;10527;52.124;5.196;2023-07-02T06:52:13;10.45;;;5.05;;
20731;SDS011;10527;52.124;5.196;2023-07-02T06:54:40;14.32;;;4.82;;
20731;SDS011;10527;52.124;5.196;2023-07-02T06:57:08;14.23;;;5.00;;
20731;SDS011;10527;52.124;5.196;2023-07-02T06:59:35;12.23;;;4.47;;
20731;SDS011;10527;52.124;5.196;2023-07-02T07:02:02;11.02;;;4.22;;
20731;SDS011;10527;52.124;5.196;2023-07-02T07:04:32;10.90;;;4.25;;
20731;SDS011;10527;52.124;5.196;2023-07-02T07:07:01;16.25;;;4.25;;
20731;SDS011;10527;52.124;5.196;2023-07-02T07:09:32;12.65;;;4.50;;
20731;SDS011;10527;52.124;5.196;2023-07-02T07:11:59;11.00;;;4.25;;
20731;SDS011;10527;52.124;5.196;2023-07-02T07:14:26;10.88;;;4.25;;
20731;SDS011;10527;52.124;5.196;2023-07-02T07:16:53;9.07;;;4.13;;
20731;SDS011;10527;52.124;5.196;2023-07-02T07:19:19;11.45;;;3.80;;
20731;SDS011;10527;52.124;5.196;2023-07-02T07:21:46;8.70;;;3.72;;
20731;SDS011;10527;52.124;5.196;2023-07-02T07:24:14;9.05;;;3.72;;
20731;SDS011;10527;52.124;5.196;2023-07-02T07:26:42;10.10;;;3.65;;
20731;SDS011;10527;52.124;5.196;2023-07-02T07:29:09;8.90;;;3.53;;
20731;SDS011;10527;52.124;5.196;2023-07-02T07:31:35;10.85;;;3.67;;
20731;SDS011;10527;52.124;5.196;2023-07-02T07:34:02;14.95;;;4.13;;
20731;SDS011;10527;52.124;5.196;2023-07-02T07:36:29;11.02;;;3.25;;
20731;SDS011;10527;52.124;5.196;2023-07-02T07:38:56;11.27;;;3.90;;
20731;SDS011;10527;52.124;5.196;2023-07-02T07:41:26;9.13;;;3.65;;
20731;SDS011;10527;52.124;5.196;2023-07-02T07:43:53;9.70;;;3.53;;
20731;SDS011;10527;52.124;5.196;2023-07-02T07:46:20;8.88;;;3.47;;
20731;SDS011;10527;52.124;5.196;2023-07-02T07:48:50;10.10;;;3.50;;
20731;SDS011;10527;52.124;5.196;2023-07-02T07:51:17;8.25;;;3.15;;
20731;SDS011;10527;52.124;5.196;2023-07-02T07:53:43;7.68;;;2.90;;
20731;SDS011;10527;52.124;5.196;2023-07-02T07:56:10;8.05;;;3.30;;
20731;SDS011;10527;52.124;5.196;2023-07-02T07:58:37;7.95;;;3.22;;
20731;SDS011;10527;52.124;5.196;2023-07-02T08:01:04;8.75;;;3.67;;
20731;SDS011;10527;52.124;5.196;2023-07-02T08:03:31;8.43;;;3.60;;
20731;SDS011;10527;52.124;5.196;2023-07-02T08:05:58;10.73;;;3.90;;
20731;SDS011;10527;52.124;5.196;2023-07-02T08:08:25;9.25;;;3.88;;
20731;SDS011;10527;52.124;5.196;2023-07-02T08:10:52;12.38;;;4.63;;
20731;SDS011;10527;52.124;5.196;2023-07-02T08:13:18;11.45;;;4.20;;
20731;SDS011;10527;52.124;5.196;2023-07-02T08:15:45;9.77;;;4.43;;
20731;SDS011;10527;52.124;5.196;2023-07-02T08:18:13;10.82;;;3.80;;
20731;SDS011;10527;52.124;5.196;2023-07-02T08:20:40;11.45;;;4.45;;
20731;SDS011;10527;52.124;5.196;2023-07-02T08:23:07;10.40;;;3.95;;
20731;SDS011;10527;52.124;5.196;2023-07-02T08:25:35;7.75;;;3.58;;
20731;SDS011;10527;52.124;5.196;2023-07-02T08:28:02;7.90;;;3.45;;
20731;SDS011;10527;52.124;5.196;2023-07-02T08:30:29;7.72;;;3.22;;
20731;SDS011;10527;52.124;5.196;2023-07-02T08:32:56;11.35;;;3.63;;
20731;SDS011;10527;52.124;5.196;2023-07-02T08:35:23;9.80;;;3.78;;
20731;SDS011;10527;52.124;5.196;2023-07-02T08:37:50;12.02;;;3.92;;
20731;SDS011;10527;52.124;5.196;2023-07-02T08:40:17;11.32;;;4.68;;
20731;SDS011;10527;52.124;5.196;2023-07-02T08:42:46;7.97;;;3.22;;
20731;SDS011;10527;52.124;5.196;2023-07-02T08:45:18;10.95;;;3.83;;
20731;SDS011;10527;52.124;5.196;2023-07-02T08:47:50;7.65;;;3.35;;
20731;SDS011;10527;52.124;5.196;2023-07-02T08:50:20;9.27;;;3.67;;
20731;SDS011;10527;52.124;5.196;2023-07-02T08:52:47;8.88;;;3.50;;
20731;SDS011;10527;52.124;5.196;2023-07-02T08:55:14;9.63;;;3.92;;
20731;SDS011;10527;52.124;5.196;2023-07-02T08:57:42;8.60;;;3.15;;
20731;SDS011;10527;52.124;5.196;2023-07-02T09:00:18;12.35;;;4.13;;
20731;SDS011;10527;52.124;5.196;2023-07-02T09:02:47;10.38;;;3.83;;
20731;SDS011;10527;52.124;5.196;2023-07-02T09:05:15;7.15;;;3.20;;
20731;SDS011;10527;52.124;5.196;2023-07-02T09:07:48;7.93;;;3.58;;
20731;SDS011;10527;52.124;5.196;2023-07-02T09:10:26;5.85;;;2.72;;
20731;SDS011;10527;52.124;5.196;2023-07-02T09:13:04;7.40;;;3.13;;
20731;SDS011;10527;52.124;5.196;2023-07-02T09:15:39;13.18;;;4.05;;
20731;SDS011;10527;52.124;5.196;2023-07-02T09:18:22;8.60;;;3.03;;
20731;SDS011;10527;52.124;5.196;2023-07-02T09:20:51;10.40;;;4.13;;
20731;SDS011;10527;52.124;5.196;2023-07-02T09:23:20;4.05;;;2.33;;
20731;SDS011;10527;52.124;5.196;2023-07-02T09:25:47;6.40;;;2.53;;
20731;SDS011;10527;52.124;5.196;2023-07-02T09:28:18;7.72;;;2.38;;
20731;SDS011;10527;52.124;5.196;2023-07-02T09:33:28;5.72;;;2.20;;
20731;SDS011;10527;52.124;5.196;2023-07-02T09:35:55;4.72;;;2.17;;
20731;SDS011;10527;52.124;5.196;2023-07-02T09:38:22;7.10;;;2.58;;
20731;SDS011;10527;52.124;5.196;2023-07-02T09:40:50;9.00;;;2.83;;
20731;SDS011;10527;52.124;5.196;2023-07-02T09:43:19;5.97;;;2.63;;
20731;SDS011;10527;52.124;5.196;2023-07-02T09:45:47;6.07;;;2.15;;
20731;SDS011;10527;52.124;5.196;2023-07-02T09:48:36;6.40;;;2.70;;
20731;SDS011;10527;52.124;5.196;2023-07-02T09:51:03;5.35;;;2.30;;
20731;SDS011;10527;52.124;5.196;2023-07-02T09:53:31;5.88;;;2.63;;
20731;SDS011;10527;52.124;5.196;2023-07-02T09:55:58;3.47;;;2.05;;
20731;SDS011;10527;52.124;5.196;2023-07-02T09:58:26;4.80;;;2.10;;
20731;SDS011;10527;52.124;5.196;2023-07-02T10:00:53;5.20;;;2.10;;
20731;SDS011;10527;52.124;5.196;2023-07-02T10:03:29;5.97;;;2.25;;
20731;SDS011;10527;52.124;5.196;2023-07-02T10:06:04;4.32;;;1.90;;
20731;SDS011;10527;52.124;5.196;2023-07-02T10:08:32;2.63;;;1.45;;
20731;SDS011;10527;52.124;5.196;2023-07-02T10:11:09;4.43;;;2.13;;
20731;SDS011;10527;52.124;5.196;2023-07-02T10:13:39;5.30;;;2.05;;
20731;SDS011;10527;52.124;5.196;2023-07-02T10:16:07;4.15;;;1.85;;
20731;SDS011;10527;52.124;5.196;2023-07-02T10:18:34;3.58;;;1.80;;
20731;SDS011;10527;52.124;5.196;2023-07-02T10:21:14;3.83;;;1.73;;
20731;SDS011;10527;52.124;5.196;2023-07-02T10:23:42;4.68;;;1.73;;
20731;SDS011;10527;52.124;5.196;2023-07-02T10:28:56;5.30;;;1.95;;
20731;SDS011;10527;52.124;5.196;2023-07-02T10:31:25;5.40;;;2.00;;
20731;SDS011;10527;52.124;5.196;2023-07-02T10:33:53;7.03;;;2.88;;
20731;SDS011;10527;52.124;5.196;2023-07-02T10:36:20;4.55;;;1.88;;
20731;SDS011;10527;52.124;5.196;2023-07-02T10:38:51;4.82;;;2.00;;
20731;SDS011;10527;52.124;5.196;2023-07-02T10:41:28;5.40;;;2.60;;
20731;SDS011;10527;52.124;5.196;2023-07-02T10:44:06;5.53;;;2.17;;
20731;SDS011;10527;52.124;5.196;2023-07-02T10:46:43;6.65;;;2.75;;
20731;SDS011;10527;52.124;5.196;2023-07-02T10:49:16;3.40;;;1.92;;
20731;SDS011;10527;52.124;5.196;2023-07-02T10:51:56;7.93;;;2.38;;
20731;SDS011;10527;52.124;5.196;2023-07-02T10:54:41;6.05;;;2.50;;
20731;SDS011;10527;52.124;5.196;2023-07-02T10:57:13;4.50;;;2.17;;
20731;SDS011;10527;52.124;5.196;2023-07-02T10:59:49;4.38;;;1.88;;
20731;SDS011;10527;52.124;5.196;2023-07-02T11:02:15;5.15;;;2.40;;
20731;SDS011;10527;52.124;5.196;2023-07-02T11:04:44;5.57;;;2.33;;
20731;SDS011;10527;52.124;5.196;2023-07-02T11:07:13;5.22;;;2.10;;
20731;SDS011;10527;52.124;5.196;2023-07-02T11:09:49;4.57;;;2.30;;
20731;SDS011;10527;52.124;5.196;2023-07-02T11:12:17;6.10;;;2.38;;
20731;SDS011;10527;52.124;5.196;2023-07-02T11:14:44;4.93;;;2.40;;
20731;SDS011;10527;52.124;5.196;2023-07-02T11:17:10;6.32;;;2.47;;
20731;SDS011;10527;52.124;5.196;2023-07-02T11:19:38;4.60;;;2.45;;
20731;SDS011;10527;52.124;5.196;2023-07-02T11:22:04;4.65;;;2.38;;
20731;SDS011;10527;52.124;5.196;2023-07-02T11:24:35;7.05;;;2.25;;
20731;SDS011;10527;52.124;5.196;2023-07-02T11:27:04;5.25;;;2.15;;
20731;SDS011;10527;52.124;5.196;2023-07-02T11:29:34;5.25;;;2.85;;
20731;SDS011;10527;52.124;5.196;2023-07-02T11:32:05;8.65;;;3.28;;
20731;SDS011;10527;52.124;5.196;2023-07-02T11:34:36;5.05;;;2.25;;
20731;SDS011;10527;52.124;5.196;2023-07-02T11:37:05;5.97;;;2.30;;
20731;SDS011;10527;52.124;5.196;2023-07-02T11:39:32;4.28;;;2.08;;
20731;SDS011;10527;52.124;5.196;2023-07-02T11:41:59;3.78;;;2.25;;
20731;SDS011;10527;52.124;5.196;2023-07-02T11:44:26;5.82;;;3.30;;
20731;SDS011;10527;52.124;5.196;2023-07-02T11:46:53;5.38;;;3.15;;
20731;SDS011;10527;52.124;5.196;2023-07-02T11:49:20;5.53;;;2.80;;
20731;SDS011;10527;52.124;5.196;2023-07-02T11:51:47;6.10;;;2.13;;
20731;SDS011;10527;52.124;5.196;2023-07-02T11:54:17;3.65;;;2.05;;
20731;SDS011;10527;52.124;5.196;2023-07-02T11:56:45;6.10;;;2.40;;
20731;SDS011;10527;52.124;5.196;2023-07-02T11:59:12;5.72;;;2.53;;
20731;SDS011;10527;52.124;5.196;2023-07-02T12:01:39;4.95;;;2.30;;
20731;SDS011;10527;52.124;5.196;2023-07-02T12:04:05;5.38;;;2.40;;
20731;SDS011;10527;52.124;5.196;2023-07-02T12:06:34;4.85;;;2.35;;
20731;SDS011;10527;52.124;5.196;2023-07-02T12:09:01;5.95;;;2.83;;
20731;SDS011;10527;52.124;5.196;2023-07-02T12:11:27;5.68;;;2.78;;
20731;SDS011;10527;52.124;5.196;2023-07-02T12:13:54;5.80;;;2.78;;
20731;SDS011;10527;52.124;5.196;2023-07-02T12:16:21;5.28;;;2.38;;
20731;SDS011;10527;52.124;5.196;2023-07-02T12:18:50;5.72;;;3.08;;
20731;SDS011;10527;52.124;5.196;2023-07-02T12:21:17;6.40;;;2.85;;
20731;SDS011;10527;52.124;5.196;2023-07-02T12:23:44;5.47;;;2.45;;
20731;SDS011;10527;52.124;5.196;2023-07-02T12:26:11;5.95;;;2.67;;
20731;SDS011;10527;52.124;5.196;2023-07-02T12:28:39;6.07;;;2.78;;
20731;SDS011;10527;52.124;5.196;2023-07-02T12:31:07;5.95;;;2.80;;
20731;SDS011;10527;52.124;5.196;2023-07-02T12:33:34;12.32;;;3.80;;
20731;SDS011;10527;52.124;5.196;2023-07-02T12:36:01;6.80;;;2.45;;
20731;SDS011;10527;52.124;5.196;2023-07-02T12:38:31;5.97;;;3.10;;
20731;SDS011;10527;52.124;5.196;2023-07-02T12:40:57;6.18;;;2.80;;
20731;SDS011;10527;52.124;5.196;2023-07-02T12:43:24;5.68;;;3.03;;
20731;SDS011;10527;52.124;5.196;2023-07-02T12:45:51;7.05;;;3.30;;
20731;SDS011;10527;52.124;5.196;2023-07-02T12:48:18;5.63;;;2.90;;
20731;SDS011;10527;52.124;5.196;2023-07-02T12:50:58;6.60;;;3.00;;
20731;SDS011;10527;52.124;5.196;2023-07-02T12:53:27;5.60;;;2.80;;
20731;SDS011;10527;52.124;5.196;2023-07-02T12:55:54;8.75;;;3.20;;
20731;SDS011;10527;52.124;5.196;2023-07-02T12:58:21;6.32;;;3.15;;
20731;SDS011;10527;52.124;5.196;2023-07-02T13:00:48;7.25;;;2.92;;
20731;SDS011;10527;52.124;5.196;2023-07-02T13:03:16;8.27;;;3.45;;
20731;SDS011;10527;52.124;5.196;2023-07-02T13:05:47;5.00;;;2.80;;
20731;SDS011;10527;52.124;5.196;2023-07-02T13:08:14;8.52;;;2.83;;
20731;SDS011;10527;52.124;5.196;2023-07-02T13:10:42;8.07;;;2.83;;
20731;SDS011;10527;52.124;5.196;2023-07-02T13:13:10;5.32;;;3.55;;
20731;SDS011;10527;52.124;5.196;2023-07-02T13:15:49;5.35;;;3.00;;
20731;SDS011;10527;52.124;5.196;2023-07-02T13:18:16;5.80;;;3.20;;
20731;SDS011;10527;52.124;5.196;2023-07-02T13:20:43;9.05;;;3.72;;
20731;SDS011;10527;52.124;5.196;2023-07-02T13:23:11;4.65;;;2.75;;
20731;SDS011;10527;52.124;5.196;2023-07-02T13:25:38;8.63;;;3.00;;
20731;SDS011;10527;52.124;5.196;2023-07-02T13:28:04;6.95;;;3.47;;
20731;SDS011;10527;52.124;5.196;2023-07-02T13:30:31;4.60;;;2.90;;
20731;SDS011;10527;52.124;5.196;2023-07-02T13:32:58;5.75;;;2.80;;
20731;SDS011;10527;52.124;5.196;2023-07-02T13:35:25;4.47;;;2.70;;
20731;SDS011;10527;52.124;5.196;2023-07-02T13:37:52;6.38;;;2.97;;
20731;SDS011;10527;52.124;5.196;2023-07-02T13:40:19;5.47;;;2.80;;
20731;SDS011;10527;52.124;5.196;2023-07-02T13:42:46;7.72;;;3.28;;
20731;SDS011;10527;52.124;5.196;2023-07-02T13:45:13;7.85;;;3.22;;
20731;SDS011;10527;52.124;5.196;2023-07-02T13:47:40;6.13;;;2.63;;
20731;SDS011;10527;52.124;5.196;2023-07-02T13:50:07;6.85;;;3.30;;
20731;SDS011;10527;52.124;5.196;2023-07-02T13:52:35;7.57;;;3.25;;
20731;SDS011;10527;52.124;5.196;2023-07-02T13:55:02;5.60;;;3.30;;
20731;SDS011;10527;52.124;5.196;2023-07-02T13:57:30;7.80;;;3.42;;
20731;SDS011;10527;52.124;5.196;2023-07-02T13:59:57;11.52;;;3.30;;
20731;SDS011;10527;52.124;5.196;2023-07-02T14:02:24;7.72;;;3.22;;
20731;SDS011;10527;52.124;5.196;2023-07-02T14:04:52;5.90;;;3.47;;
20731;SDS011;10527;52.124;5.196;2023-07-02T14:07:20;10.88;;;3.60;;
20731;SDS011;10527;52.124;5.196;2023-07-02T14:09:46;5.90;;;3.53;;
20731;SDS011;10527;52.124;5.196;2023-07-02T14:12:13;9.45;;;4.18;;
20731;SDS011;10527;52.124;5.196;2023-07-02T14:14:40;6.75;;;3.58;;
20731;SDS011;10527;52.124;5.196;2023-07-02T14:17:07;8.25;;;3.45;;
20731;SDS011;10527;52.124;5.196;2023-07-02T14:19:34;6.15;;;2.83;;
20731;SDS011;10527;52.124;5.196;2023-07-02T14:22:01;8.32;;;3.67;;
20731;SDS011;10527;52.124;5.196;2023-07-02T14:24:28;6.60;;;3.28;;
20731;SDS011;10527;52.124;5.196;2023-07-02T14:26:56;6.25;;;3.05;;
20731;SDS011;10527;52.124;5.196;2023-07-02T14:29:23;6.45;;;2.88;;
20731;SDS011;10527;52.124;5.196;2023-07-02T14:31:53;5.82;;;3.03;;
20731;SDS011;10527;52.124;5.196;2023-07-02T14:34:20;7.00;;;3.00;;
20731;SDS011;10527;52.124;5.196;2023-07-02T14:36:48;5.80;;;2.65;;
20731;SDS011;10527;52.124;5.196;2023-07-02T14:39:15;6.40;;;2.78;;
20731;SDS011;10527;52.124;5.196;2023-07-02T14:41:42;7.03;;;2.88;;
20731;SDS011;10527;52.124;5.196;2023-07-02T14:44:09;7.38;;;3.22;;
20731;SDS011;10527;52.124;5.196;2023-07-02T14:46:36;5.90;;;2.80;;
20731;SDS011;10527;52.124;5.196;2023-07-02T14:49:03;5.32;;;3.10;;
20731;SDS011;10527;52.124;5.196;2023-07-02T14:51:29;9.93;;;2.90;;
20731;SDS011;10527;52.124;5.196;2023-07-02T14:53:56;5.03;;;2.60;;